sensor_id;sensor_type;location;lat;lon;timestamp;P1;durP1;ratioP1;P2;durP2;ratioP2
65998;SDS011;52766;56.008;37.440;2023-06-22T00:01:43;15.55;;;7.38;;
65998;SDS011;52766;56.008;37.440;2023-06-22T00:04:13;19.00;;;7.93;;
65998;SDS011;52766;56.008;37.440;2023-06-22T00:06:40;16.17;;;8.23;;
65998;SDS011;52766;56.008;37.440;2023-06-22T00:09:07;14.85;;;8.00;;
65998;SDS011;52766;56.008;37.440;2023-06-22T00:11:38;18.95;;;8.80;;
65998;SDS011;52766;56.008;37.440;2023-06-22T00:14:04;18.10;;;8.48;;
65998;SDS011;52766;56.008;37.440;2023-06-22T00:16:33;16.05;;;8.30;;
65998;SDS011;52766;56.008;37.440;2023-06-22T00:19:02;19.73;;;9.20;;
65998;SDS011;52766;56.008;37.440;2023-06-22T00:21:32;24.67;;;9.25;;
65998;SDS011;52766;56.008;37.440;2023-06-22T00:23:59;23.60;;;9.15;;
65998;SDS011;52766;56.008;37.440;2023-06-22T00:26:28;16.40;;;8.43;;
65998;SDS011;52766;56.008;37.440;2023-06-22T00:28:55;19.02;;;9.13;;
65998;SDS011;52766;56.008;37.440;2023-06-22T00:31:22;16.85;;;8.48;;
65998;SDS011;52766;56.008;37.440;2023-06-22T00:33:54;20.55;;;9.45;;
65998;SDS011;52766;56.008;37.440;2023-06-22T00:36:20;19.90;;;8.48;;
65998;SDS011;52766;56.008;37.440;2023-06-22T00:38:46;19.42;;;9.57;;
65998;SDS011;52766;56.008;37.440;2023-06-22T00:41:12;16.35;;;8.00;;
65998;SDS011;52766;56.008;37.440;2023-06-22T00:43:37;20.10;;;7.70;;
65998;SDS011;52766;56.008;37.440;2023-06-22T00:46:05;17.65;;;9.23;;
65998;SDS011;52766;56.008;37.440;2023-06-22T00:48:32;21.15;;;8.50;;
65998;SDS011;52766;56.008;37.440;2023-06-22T00:50:59;14.80;;;8.35;;
65998;SDS011;52766;56.008;37.440;2023-06-22T00:53:25;15.45;;;7.45;;
65998;SDS011;52766;56.008;37.440;2023-06-22T00:55:50;14.48;;;7.60;;
65998;SDS011;52766;56.008;37.440;2023-06-22T00:58:19;18.52;;;8.45;;
65998;SDS011;52766;56.008;37.440;2023-06-22T01:00:51;18.73;;;8.45;;
65998;SDS011;52766;56.008;37.440;2023-06-22T01:03:16;15.60;;;7.70;;
65998;SDS011;52766;56.008;37.440;2023-06-22T01:05:43;15.73;;;7.65;;
65998;SDS011;52766;56.008;37.440;2023-06-22T01:08:16;17.98;;;8.15;;
65998;SDS011;52766;56.008;37.440;2023-06-22T01:10:59;14.90;;;7.57;;
65998;SDS011;52766;56.008;37.440;2023-06-22T01:16:16;14.90;;;7.47;;
65998;SDS011;52766;56.008;37.440;2023-06-22T01:18:45;20.52;;;8.63;;
65998;SDS011;52766;56.008;37.440;2023-06-22T01:21:15;17.20;;;9.73;;
65998;SDS011;52766;56.008;37.440;2023-06-22T01:23:54;17.50;;;8.43;;
65998;SDS011;52766;56.008;37.440;2023-06-22T01:26:34;21.33;;;8.60;;
65998;SDS011;52766;56.008;37.440;2023-06-22T01:29:23;23.15;;;8.93;;
65998;SDS011;52766;56.008;37.440;2023-06-22T01:31:51;18.95;;;8.98;;
65998;SDS011;52766;56.008;37.440;2023-06-22T01:34:21;20.92;;;8.38;;
65998;SDS011;52766;56.008;37.440;2023-06-22T01:36:47;18.88;;;8.88;;
65998;SDS011;52766;56.008;37.440;2023-06-22T01:39:16;13.32;;;6.72;;
65998;SDS011;52766;56.008;37.440;2023-06-22T01:41:44;18.17;;;7.15;;
65998;SDS011;52766;56.008;37.440;2023-06-22T01:44:15;12.75;;;6.70;;
65998;SDS011;52766;56.008;37.440;2023-06-22T01:46:44;21.50;;;8.18;;
65998;SDS011;52766;56.008;37.440;2023-06-22T01:49:13;17.50;;;8.45;;
65998;SDS011;52766;56.008;37.440;2023-06-22T01:51:39;18.60;;;7.38;;
65998;SDS011;52766;56.008;37.440;2023-06-22T01:54:06;16.52;;;7.75;;
65998;SDS011;52766;56.008;37.440;2023-06-22T01:56:33;16.02;;;8.02;;
65998;SDS011;52766;56.008;37.440;2023-06-22T02:01:48;15.60;;;8.60;;
65998;SDS011;52766;56.008;37.440;2023-06-22T02:04:19;18.70;;;8.52;;
65998;SDS011;52766;56.008;37.440;2023-06-22T02:06:50;19.92;;;8.25;;
65998;SDS011;52766;56.008;37.440;2023-06-22T02:09:21;22.38;;;8.30;;
65998;SDS011;52766;56.008;37.440;2023-06-22T02:11:47;19.00;;;8.70;;
65998;SDS011;52766;56.008;37.440;2023-06-22T02:14:17;18.75;;;7.78;;
65998;SDS011;52766;56.008;37.440;2023-06-22T02:16:44;18.25;;;8.27;;
65998;SDS011;52766;56.008;37.440;2023-06-22T02:19:10;14.68;;;7.70;;
65998;SDS011;52766;56.008;37.440;2023-06-22T02:21:36;18.50;;;8.38;;
65998;SDS011;52766;56.008;37.440;2023-06-22T02:24:05;20.35;;;8.30;;
65998;SDS011;52766;56.008;37.440;2023-06-22T02:26:33;17.80;;;8.43;;
65998;SDS011;52766;56.008;37.440;2023-06-22T02:29:01;15.65;;;7.28;;
65998;SDS011;52766;56.008;37.440;2023-06-22T02:31:28;20.15;;;8.43;;
65998;SDS011;52766;56.008;37.440;2023-06-22T02:33:58;21.10;;;8.25;;
65998;SDS011;52766;56.008;37.440;2023-06-22T02:36:24;28.90;;;10.10;;
65998;SDS011;52766;56.008;37.440;2023-06-22T02:38:53;15.40;;;7.82;;
65998;SDS011;52766;56.008;37.440;2023-06-22T02:41:19;17.30;;;7.80;;
65998;SDS011;52766;56.008;37.440;2023-06-22T02:43:45;16.00;;;8.35;;
65998;SDS011;52766;56.008;37.440;2023-06-22T02:46:12;23.48;;;8.88;;
65998;SDS011;52766;56.008;37.440;2023-06-22T02:48:40;18.27;;;8.48;;
65998;SDS011;52766;56.008;37.440;2023-06-22T02:51:07;17.15;;;8.93;;
65998;SDS011;52766;56.008;37.440;2023-06-22T02:53:35;22.30;;;9.27;;
65998;SDS011;52766;56.008;37.440;2023-06-22T02:56:02;15.63;;;9.10;;
65998;SDS011;52766;56.008;37.440;2023-06-22T02:58:36;24.30;;;9.32;;
65998;SDS011;52766;56.008;37.440;2023-06-22T03:01:08;30.75;;;10.52;;
65998;SDS011;52766;56.008;37.440;2023-06-22T03:03:39;19.80;;;9.27;;
65998;SDS011;52766;56.008;37.440;2023-06-22T03:06:06;23.38;;;9.02;;
65998;SDS011;52766;56.008;37.440;2023-06-22T03:08:32;22.75;;;9.60;;
65998;SDS011;52766;56.008;37.440;2023-06-22T03:10:58;18.40;;;8.75;;
65998;SDS011;52766;56.008;37.440;2023-06-22T03:13:26;20.38;;;8.18;;
65998;SDS011;52766;56.008;37.440;2023-06-22T03:15:54;21.65;;;8.82;;
65998;SDS011;52766;56.008;37.440;2023-06-22T03:18:21;19.13;;;8.93;;
65998;SDS011;52766;56.008;37.440;2023-06-22T03:20:50;19.08;;;8.02;;
65998;SDS011;52766;56.008;37.440;2023-06-22T03:23:16;18.30;;;7.75;;
65998;SDS011;52766;56.008;37.440;2023-06-22T03:25:43;14.70;;;7.78;;
65998;SDS011;52766;56.008;37.440;2023-06-22T03:28:14;16.80;;;8.30;;
65998;SDS011;52766;56.008;37.440;2023-06-22T03:30:40;14.55;;;8.38;;
65998;SDS011;52766;56.008;37.440;2023-06-22T03:33:07;19.15;;;8.93;;
65998;SDS011;52766;56.008;37.440;2023-06-22T03:35:37;19.35;;;8.55;;
65998;SDS011;52766;56.008;37.440;2023-06-22T03:38:05;20.27;;;9.00;;
65998;SDS011;52766;56.008;37.440;2023-06-22T03:40:32;17.35;;;9.48;;
65998;SDS011;52766;56.008;37.440;2023-06-22T03:43:01;16.73;;;9.52;;
65998;SDS011;52766;56.008;37.440;2023-06-22T03:45:32;15.52;;;8.73;;
65998;SDS011;52766;56.008;37.440;2023-06-22T03:47:59;14.85;;;7.07;;
65998;SDS011;52766;56.008;37.440;2023-06-22T03:50:32;14.55;;;6.32;;
65998;SDS011;52766;56.008;37.440;2023-06-22T03:53:24;14.55;;;8.20;;
65998;SDS011;52766;56.008;37.440;2023-06-22T03:55:57;14.95;;;6.95;;
65998;SDS011;52766;56.008;37.440;2023-06-22T03:58:32;12.73;;;6.28;;
65998;SDS011;52766;56.008;37.440;2023-06-22T04:01:08;11.80;;;6.35;;
65998;SDS011;52766;56.008;37.440;2023-06-22T04:03:40;12.38;;;6.65;;
65998;SDS011;52766;56.008;37.440;2023-06-22T04:06:08;12.10;;;5.82;;
65998;SDS011;52766;56.008;37.440;2023-06-22T04:08:35;10.23;;;5.47;;
65998;SDS011;52766;56.008;37.440;2023-06-22T04:11:04;14.95;;;6.05;;
65998;SDS011;52766;56.008;37.440;2023-06-22T04:13:31;9.80;;;5.30;;
65998;SDS011;52766;56.008;37.440;2023-06-22T04:15:58;10.75;;;6.22;;
65998;SDS011;52766;56.008;37.440;2023-06-22T04:18:27;12.13;;;5.80;;
65998;SDS011;52766;56.008;37.440;2023-06-22T04:20:53;13.80;;;6.60;;
65998;SDS011;52766;56.008;37.440;2023-06-22T04:23:25;12.65;;;6.55;;
65998;SDS011;52766;56.008;37.440;2023-06-22T04:26:08;12.88;;;5.88;;
65998;SDS011;52766;56.008;37.440;2023-06-22T04:28:34;12.55;;;6.15;;
65998;SDS011;52766;56.008;37.440;2023-06-22T04:31:03;13.15;;;5.68;;
65998;SDS011;52766;56.008;37.440;2023-06-22T04:33:30;11.02;;;5.93;;
65998;SDS011;52766;56.008;37.440;2023-06-22T04:35:58;16.80;;;6.43;;
65998;SDS011;52766;56.008;37.440;2023-06-22T04:38:27;11.50;;;6.25;;
65998;SDS011;52766;56.008;37.440;2023-06-22T04:40:54;16.35;;;7.32;;
65998;SDS011;52766;56.008;37.440;2023-06-22T04:43:23;14.27;;;7.10;;
65998;SDS011;52766;56.008;37.440;2023-06-22T04:45:58;11.32;;;6.20;;
65998;SDS011;52766;56.008;37.440;2023-06-22T04:48:32;13.73;;;6.45;;
65998;SDS011;52766;56.008;37.440;2023-06-22T04:50:59;15.05;;;6.47;;
65998;SDS011;52766;56.008;37.440;2023-06-22T04:53:35;13.15;;;6.60;;
65998;SDS011;52766;56.008;37.440;2023-06-22T04:56:02;12.10;;;6.22;;
65998;SDS011;52766;56.008;37.440;2023-06-22T04:58:30;9.73;;;5.15;;
65998;SDS011;52766;56.008;37.440;2023-06-22T05:00:58;13.40;;;5.72;;
65998;SDS011;52766;56.008;37.440;2023-06-22T05:03:25;13.05;;;6.05;;
65998;SDS011;52766;56.008;37.440;2023-06-22T05:05:53;13.90;;;6.40;;
65998;SDS011;52766;56.008;37.440;2023-06-22T05:08:21;8.95;;;5.00;;
65998;SDS011;52766;56.008;37.440;2023-06-22T05:10:47;14.20;;;6.25;;
65998;SDS011;52766;56.008;37.440;2023-06-22T05:13:14;9.80;;;5.18;;
65998;SDS011;52766;56.008;37.440;2023-06-22T05:15:40;10.30;;;5.03;;
65998;SDS011;52766;56.008;37.440;2023-06-22T05:18:07;9.88;;;4.80;;
65998;SDS011;52766;56.008;37.440;2023-06-22T05:20:34;9.32;;;5.20;;
65998;SDS011;52766;56.008;37.440;2023-06-22T05:23:01;14.10;;;5.45;;
65998;SDS011;52766;56.008;37.440;2023-06-22T05:25:28;10.98;;;5.40;;
65998;SDS011;52766;56.008;37.440;2023-06-22T05:27:55;12.38;;;5.07;;
65998;SDS011;52766;56.008;37.440;2023-06-22T05:30:26;9.95;;;5.30;;
65998;SDS011;52766;56.008;37.440;2023-06-22T05:32:56;10.20;;;5.00;;
65998;SDS011;52766;56.008;37.440;2023-06-22T05:35:25;11.07;;;4.80;;
65998;SDS011;52766;56.008;37.440;2023-06-22T05:37:55;12.13;;;5.45;;
65998;SDS011;52766;56.008;37.440;2023-06-22T05:40:23;14.23;;;5.38;;
65998;SDS011;52766;56.008;37.440;2023-06-22T05:42:52;11.90;;;5.68;;
65998;SDS011;52766;56.008;37.440;2023-06-22T05:45:24;10.85;;;4.60;;
65998;SDS011;52766;56.008;37.440;2023-06-22T05:47:51;10.35;;;4.75;;
65998;SDS011;52766;56.008;37.440;2023-06-22T05:50:17;9.93;;;5.53;;
65998;SDS011;52766;56.008;37.440;2023-06-22T05:52:44;8.15;;;4.88;;
65998;SDS011;52766;56.008;37.440;2023-06-22T05:55:13;8.90;;;4.65;;
65998;SDS011;52766;56.008;37.440;2023-06-22T05:58:06;6.68;;;4.13;;
65998;SDS011;52766;56.008;37.440;2023-06-22T06:00:32;10.23;;;4.85;;
65998;SDS011;52766;56.008;37.440;2023-06-22T06:03:01;9.60;;;4.38;;
65998;SDS011;52766;56.008;37.440;2023-06-22T06:05:31;8.00;;;4.40;;
65998;SDS011;52766;56.008;37.440;2023-06-22T06:08:02;9.82;;;4.07;;
65998;SDS011;52766;56.008;37.440;2023-06-22T06:10:31;8.88;;;3.70;;
65998;SDS011;52766;56.008;37.440;2023-06-22T06:13:00;8.48;;;4.15;;
65998;SDS011;52766;56.008;37.440;2023-06-22T06:15:33;6.55;;;4.28;;
65998;SDS011;52766;56.008;37.440;2023-06-22T06:18:02;8.13;;;4.35;;
65998;SDS011;52766;56.008;37.440;2023-06-22T06:20:31;7.60;;;4.35;;
65998;SDS011;52766;56.008;37.440;2023-06-22T06:23:01;8.35;;;3.70;;
65998;SDS011;52766;56.008;37.440;2023-06-22T06:25:28;6.60;;;3.33;;
65998;SDS011;52766;56.008;37.440;2023-06-22T06:27:55;8.07;;;3.80;;
65998;SDS011;52766;56.008;37.440;2023-06-22T06:30:22;7.80;;;3.25;;
65998;SDS011;52766;56.008;37.440;2023-06-22T06:32:49;6.78;;;3.90;;
65998;SDS011;52766;56.008;37.440;2023-06-22T06:35:15;6.60;;;3.63;;
65998;SDS011;52766;56.008;37.440;2023-06-22T06:37:43;5.75;;;3.65;;
65998;SDS011;52766;56.008;37.440;2023-06-22T06:40:11;8.40;;;3.72;;
65998;SDS011;52766;56.008;37.440;2023-06-22T06:42:42;6.35;;;3.75;;
65998;SDS011;52766;56.008;37.440;2023-06-22T06:45:20;11.15;;;3.85;;
65998;SDS011;52766;56.008;37.440;2023-06-22T06:47:51;8.07;;;3.08;;
65998;SDS011;52766;56.008;37.440;2023-06-22T06:50:29;5.97;;;3.10;;
65998;SDS011;52766;56.008;37.440;2023-06-22T06:52:56;5.60;;;3.53;;
65998;SDS011;52766;56.008;37.440;2023-06-22T06:58:42;5.47;;;3.30;;
65998;SDS011;52766;56.008;37.440;2023-06-22T07:01:15;10.27;;;3.50;;
65998;SDS011;52766;56.008;37.440;2023-06-22T07:04:08;7.70;;;3.38;;
65998;SDS011;52766;56.008;37.440;2023-06-22T07:06:42;7.38;;;3.97;;
65998;SDS011;52766;56.008;37.440;2023-06-22T07:09:11;9.95;;;3.70;;
65998;SDS011;52766;56.008;37.440;2023-06-22T07:11:44;5.03;;;3.10;;
65998;SDS011;52766;56.008;37.440;2023-06-22T07:14:12;8.25;;;3.85;;
65998;SDS011;52766;56.008;37.440;2023-06-22T07:16:40;4.78;;;2.92;;
65998;SDS011;52766;56.008;37.440;2023-06-22T07:19:10;6.38;;;3.30;;
65998;SDS011;52766;56.008;37.440;2023-06-22T07:21:46;6.47;;;3.58;;
65998;SDS011;52766;56.008;37.440;2023-06-22T07:24:24;5.05;;;3.17;;
65998;SDS011;52766;56.008;37.440;2023-06-22T07:26:50;5.50;;;3.33;;
65998;SDS011;52766;56.008;37.440;2023-06-22T07:31:52;5.78;;;3.58;;
65998;SDS011;52766;56.008;37.440;2023-06-22T07:34:23;4.10;;;2.47;;
65998;SDS011;52766;56.008;37.440;2023-06-22T07:37:12;4.63;;;2.90;;
65998;SDS011;52766;56.008;37.440;2023-06-22T07:39:39;6.25;;;3.25;;
65998;SDS011;52766;56.008;37.440;2023-06-22T07:42:15;5.53;;;3.58;;
65998;SDS011;52766;56.008;37.440;2023-06-22T07:44:44;8.55;;;3.67;;
65998;SDS011;52766;56.008;37.440;2023-06-22T07:50:06;6.88;;;3.40;;
65998;SDS011;52766;56.008;37.440;2023-06-22T07:52:36;4.75;;;3.10;;
65998;SDS011;52766;56.008;37.440;2023-06-22T07:55:02;5.30;;;3.25;;
65998;SDS011;52766;56.008;37.440;2023-06-22T07:57:35;4.97;;;2.90;;
65998;SDS011;52766;56.008;37.440;2023-06-22T08:00:03;6.43;;;3.47;;
65998;SDS011;52766;56.008;37.440;2023-06-22T08:02:47;5.78;;;3.13;;
65998;SDS011;52766;56.008;37.440;2023-06-22T08:05:17;5.03;;;2.90;;
65998;SDS011;52766;56.008;37.440;2023-06-22T08:07:52;5.32;;;3.70;;
65998;SDS011;52766;56.008;37.440;2023-06-22T08:10:23;7.63;;;3.85;;
65998;SDS011;52766;56.008;37.440;2023-06-22T08:13:10;5.70;;;3.50;;
65998;SDS011;52766;56.008;37.440;2023-06-22T08:16:07;9.82;;;4.53;;
65998;SDS011;52766;56.008;37.440;2023-06-22T08:18:41;5.57;;;3.70;;
65998;SDS011;52766;56.008;37.440;2023-06-22T08:21:20;5.95;;;3.00;;
65998;SDS011;52766;56.008;37.440;2023-06-22T08:23:47;6.05;;;3.15;;
65998;SDS011;52766;56.008;37.440;2023-06-22T08:26:26;6.72;;;3.60;;
65998;SDS011;52766;56.008;37.440;2023-06-22T08:28:54;6.70;;;3.30;;
65998;SDS011;52766;56.008;37.440;2023-06-22T08:31:22;7.03;;;3.85;;
65998;SDS011;52766;56.008;37.440;2023-06-22T08:33:55;5.00;;;3.13;;
65998;SDS011;52766;56.008;37.440;2023-06-22T08:36:23;6.13;;;4.35;;
65998;SDS011;52766;56.008;37.440;2023-06-22T08:38:55;5.88;;;3.15;;
65998;SDS011;52766;56.008;37.440;2023-06-22T08:41:30;5.53;;;3.25;;
65998;SDS011;52766;56.008;37.440;2023-06-22T08:43:58;8.45;;;3.35;;
65998;SDS011;52766;56.008;37.440;2023-06-22T08:46:28;8.95;;;4.43;;
65998;SDS011;52766;56.008;37.440;2023-06-22T08:49:03;7.25;;;3.67;;
65998;SDS011;52766;56.008;37.440;2023-06-22T08:51:32;7.30;;;4.07;;
65998;SDS011;52766;56.008;37.440;2023-06-22T08:54:07;7.95;;;3.92;;
65998;SDS011;52766;56.008;37.440;2023-06-22T08:57:17;5.80;;;3.40;;
65998;SDS011;52766;56.008;37.440;2023-06-22T08:59:59;6.82;;;4.10;;
65998;SDS011;52766;56.008;37.440;2023-06-22T09:02:35;6.45;;;3.95;;
65998;SDS011;52766;56.008;37.440;2023-06-22T09:05:09;12.38;;;4.50;;
65998;SDS011;52766;56.008;37.440;2023-06-22T09:07:40;5.78;;;3.80;;
65998;SDS011;52766;56.008;37.440;2023-06-22T09:10:13;5.90;;;3.50;;
65998;SDS011;52766;56.008;37.440;2023-06-22T09:12:40;6.43;;;3.28;;
65998;SDS011;52766;56.008;37.440;2023-06-22T09:15:13;7.55;;;4.30;;
65998;SDS011;52766;56.008;37.440;2023-06-22T09:17:49;8.43;;;4.18;;
65998;SDS011;52766;56.008;37.440;2023-06-22T09:20:34;6.93;;;3.67;;
65998;SDS011;52766;56.008;37.440;2023-06-22T09:23:05;7.75;;;3.72;;
65998;SDS011;52766;56.008;37.440;2023-06-22T09:25:42;7.85;;;4.47;;
65998;SDS011;52766;56.008;37.440;2023-06-22T09:28:37;7.75;;;4.05;;
65998;SDS011;52766;56.008;37.440;2023-06-22T09:31:04;7.50;;;5.78;;
65998;SDS011;52766;56.008;37.440;2023-06-22T09:33:35;7.63;;;5.45;;
65998;SDS011;52766;56.008;37.440;2023-06-22T09:36:10;6.60;;;4.07;;
65998;SDS011;52766;56.008;37.440;2023-06-22T09:38:41;6.38;;;3.53;;
65998;SDS011;52766;56.008;37.440;2023-06-22T09:41:15;6.70;;;4.00;;
65998;SDS011;52766;56.008;37.440;2023-06-22T09:43:42;7.13;;;3.63;;
65998;SDS011;52766;56.008;37.440;2023-06-22T09:46:15;5.40;;;3.47;;
65998;SDS011;52766;56.008;37.440;2023-06-22T09:48:42;5.72;;;4.07;;
65998;SDS011;52766;56.008;37.440;2023-06-22T09:51:13;6.15;;;4.95;;
65998;SDS011;52766;56.008;37.440;2023-06-22T09:53:45;6.38;;;4.07;;
65998;SDS011;52766;56.008;37.440;2023-06-22T09:56:18;9.43;;;4.32;;
65998;SDS011;52766;56.008;37.440;2023-06-22T09:58:48;8.90;;;5.10;;
65998;SDS011;52766;56.008;37.440;2023-06-22T10:04:16;6.47;;;5.57;;
65998;SDS011;52766;56.008;37.440;2023-06-22T10:10:12;7.32;;;4.18;;
65998;SDS011;52766;56.008;37.440;2023-06-22T10:13:02;6.15;;;4.18;;
65998;SDS011;52766;56.008;37.440;2023-06-22T10:15:32;7.78;;;4.05;;
65998;SDS011;52766;56.008;37.440;2023-06-22T10:18:02;6.15;;;4.68;;
65998;SDS011;52766;56.008;37.440;2023-06-22T10:20:30;8.65;;;4.32;;
65998;SDS011;52766;56.008;37.440;2023-06-22T10:22:58;7.10;;;4.63;;
65998;SDS011;52766;56.008;37.440;2023-06-22T10:25:37;8.15;;;4.80;;
65998;SDS011;52766;56.008;37.440;2023-06-22T10:28:28;6.75;;;4.55;;
65998;SDS011;52766;56.008;37.440;2023-06-22T10:30:58;6.25;;;4.53;;
65998;SDS011;52766;56.008;37.440;2023-06-22T10:33:25;8.15;;;4.63;;
65998;SDS011;52766;56.008;37.440;2023-06-22T10:35:53;8.77;;;4.32;;
65998;SDS011;52766;56.008;37.440;2023-06-22T10:38:39;8.23;;;5.47;;
65998;SDS011;52766;56.008;37.440;2023-06-22T10:41:08;8.23;;;4.60;;
65998;SDS011;52766;56.008;37.440;2023-06-22T10:43:42;7.03;;;4.47;;
65998;SDS011;52766;56.008;37.440;2023-06-22T10:46:12;6.13;;;4.38;;
65998;SDS011;52766;56.008;37.440;2023-06-22T10:48:38;6.43;;;4.22;;
65998;SDS011;52766;56.008;37.440;2023-06-22T10:51:04;6.60;;;4.07;;
65998;SDS011;52766;56.008;37.440;2023-06-22T10:53:42;6.93;;;4.30;;
65998;SDS011;52766;56.008;37.440;2023-06-22T10:56:35;10.10;;;4.03;;
65998;SDS011;52766;56.008;37.440;2023-06-22T10:59:07;10.65;;;4.82;;
65998;SDS011;52766;56.008;37.440;2023-06-22T11:01:38;8.45;;;4.60;;
65998;SDS011;52766;56.008;37.440;2023-06-22T11:04:07;8.18;;;4.88;;
65998;SDS011;52766;56.008;37.440;2023-06-22T11:06:53;9.52;;;4.32;;
65998;SDS011;52766;56.008;37.440;2023-06-22T11:09:24;7.50;;;4.82;;
65998;SDS011;52766;56.008;37.440;2023-06-22T11:12:05;5.82;;;3.90;;
65998;SDS011;52766;56.008;37.440;2023-06-22T11:14:48;6.93;;;4.03;;
65998;SDS011;52766;56.008;37.440;2023-06-22T11:17:21;6.45;;;3.80;;
65998;SDS011;52766;56.008;37.440;2023-06-22T11:19:52;6.88;;;3.70;;
65998;SDS011;52766;56.008;37.440;2023-06-22T11:22:22;14.68;;;4.20;;
65998;SDS011;52766;56.008;37.440;2023-06-22T11:25:48;7.82;;;4.40;;
65998;SDS011;52766;56.008;37.440;2023-06-22T11:28:50;7.00;;;4.10;;
65998;SDS011;52766;56.008;37.440;2023-06-22T11:31:26;6.47;;;4.10;;
65998;SDS011;52766;56.008;37.440;2023-06-22T11:34:03;6.95;;;3.85;;
65998;SDS011;52766;56.008;37.440;2023-06-22T11:36:50;5.25;;;2.85;;
65998;SDS011;52766;56.008;37.440;2023-06-22T11:39:44;9.00;;;4.50;;
65998;SDS011;52766;56.008;37.440;2023-06-22T11:42:16;8.20;;;4.50;;
65998;SDS011;52766;56.008;37.440;2023-06-22T11:45:39;8.88;;;4.60;;
65998;SDS011;52766;56.008;37.440;2023-06-22T11:48:18;7.63;;;4.35;;
65998;SDS011;52766;56.008;37.440;2023-06-22T11:50:44;11.50;;;5.50;;
65998;SDS011;52766;56.008;37.440;2023-06-22T11:53:17;8.27;;;4.78;;
65998;SDS011;52766;56.008;37.440;2023-06-22T11:59:13;6.13;;;4.47;;
65998;SDS011;52766;56.008;37.440;2023-06-22T12:01:54;7.75;;;4.75;;
65998;SDS011;52766;56.008;37.440;2023-06-22T12:04:48;8.02;;;4.93;;
65998;SDS011;52766;56.008;37.440;2023-06-22T12:07:26;7.07;;;4.75;;
65998;SDS011;52766;56.008;37.440;2023-06-22T12:10:02;5.88;;;4.45;;
65998;SDS011;52766;56.008;37.440;2023-06-22T12:12:31;7.30;;;5.25;;
65998;SDS011;52766;56.008;37.440;2023-06-22T12:15:00;8.00;;;5.10;;
65998;SDS011;52766;56.008;37.440;2023-06-22T12:17:32;6.20;;;4.60;;
65998;SDS011;52766;56.008;37.440;2023-06-22T12:20:08;7.95;;;4.93;;
65998;SDS011;52766;56.008;37.440;2023-06-22T12:22:40;9.43;;;4.93;;
65998;SDS011;52766;56.008;37.440;2023-06-22T12:25:18;8.63;;;5.45;;
65998;SDS011;52766;56.008;37.440;2023-06-22T12:28:15;6.15;;;4.28;;
65998;SDS011;52766;56.008;37.440;2023-06-22T12:30:57;7.10;;;5.00;;
65998;SDS011;52766;56.008;37.440;2023-06-22T12:33:41;10.00;;;5.78;;
65998;SDS011;52766;56.008;37.440;2023-06-22T12:36:12;9.38;;;5.93;;
65998;SDS011;52766;56.008;37.440;2023-06-22T12:38:45;7.25;;;4.88;;
65998;SDS011;52766;56.008;37.440;2023-06-22T12:41:26;9.23;;;5.00;;
65998;SDS011;52766;56.008;37.440;2023-06-22T12:43:59;7.40;;;4.97;;
65998;SDS011;52766;56.008;37.440;2023-06-22T12:46:30;8.10;;;5.50;;
65998;SDS011;52766;56.008;37.440;2023-06-22T12:49:03;10.10;;;5.15;;
65998;SDS011;52766;56.008;37.440;2023-06-22T12:52:08;7.47;;;5.00;;
65998;SDS011;52766;56.008;37.440;2023-06-22T12:54:50;7.00;;;5.28;;
65998;SDS011;52766;56.008;37.440;2023-06-22T12:57:22;8.60;;;4.88;;
65998;SDS011;52766;56.008;37.440;2023-06-22T13:00:23;9.68;;;5.70;;
65998;SDS011;52766;56.008;37.440;2023-06-22T13:06:02;8.38;;;5.05;;
65998;SDS011;52766;56.008;37.440;2023-06-22T13:08:40;7.85;;;5.05;;
65998;SDS011;52766;56.008;37.440;2023-06-22T13:11:23;8.35;;;5.22;;
65998;SDS011;52766;56.008;37.440;2023-06-22T13:13:55;7.25;;;5.85;;
65998;SDS011;52766;56.008;37.440;2023-06-22T13:16:26;6.30;;;4.65;;
65998;SDS011;52766;56.008;37.440;2023-06-22T13:18:58;10.73;;;5.45;;
65998;SDS011;52766;56.008;37.440;2023-06-22T13:21:54;7.10;;;4.97;;
65998;SDS011;52766;56.008;37.440;2023-06-22T13:24:21;7.85;;;5.80;;
65998;SDS011;52766;56.008;37.440;2023-06-22T13:26:49;9.18;;;6.50;;
65998;SDS011;52766;56.008;37.440;2023-06-22T13:29:21;8.68;;;5.70;;
65998;SDS011;52766;56.008;37.440;2023-06-22T13:31:52;7.93;;;5.47;;
65998;SDS011;52766;56.008;37.440;2023-06-22T13:34:48;8.75;;;5.70;;
65998;SDS011;52766;56.008;37.440;2023-06-22T13:37:17;9.27;;;5.70;;
65998;SDS011;52766;56.008;37.440;2023-06-22T13:39:44;7.95;;;6.32;;
65998;SDS011;52766;56.008;37.440;2023-06-22T13:42:31;6.75;;;5.32;;
65998;SDS011;52766;56.008;37.440;2023-06-22T13:44:59;7.40;;;4.90;;
65998;SDS011;52766;56.008;37.440;2023-06-22T13:47:27;8.25;;;5.35;;
65998;SDS011;52766;56.008;37.440;2023-06-22T13:49:56;7.68;;;5.78;;
65998;SDS011;52766;56.008;37.440;2023-06-22T13:52:25;7.60;;;5.20;;
65998;SDS011;52766;56.008;37.440;2023-06-22T13:54:53;6.22;;;5.20;;
65998;SDS011;52766;56.008;37.440;2023-06-22T13:57:28;7.20;;;4.80;;
65998;SDS011;52766;56.008;37.440;2023-06-22T13:59:56;7.05;;;5.40;;
65998;SDS011;52766;56.008;37.440;2023-06-22T14:02:51;8.23;;;5.40;;
65998;SDS011;52766;56.008;37.440;2023-06-22T14:05:17;6.65;;;4.93;;
65998;SDS011;52766;56.008;37.440;2023-06-22T14:07:49;7.97;;;5.72;;
65998;SDS011;52766;56.008;37.440;2023-06-22T14:10:38;6.22;;;5.28;;
65998;SDS011;52766;56.008;37.440;2023-06-22T14:13:08;6.00;;;4.78;;
65998;SDS011;52766;56.008;37.440;2023-06-22T14:15:43;9.55;;;5.78;;
65998;SDS011;52766;56.008;37.440;2023-06-22T14:18:13;9.13;;;5.68;;
65998;SDS011;52766;56.008;37.440;2023-06-22T14:20:45;7.20;;;5.78;;
65998;SDS011;52766;56.008;37.440;2023-06-22T14:23:13;8.70;;;5.50;;
65998;SDS011;52766;56.008;37.440;2023-06-22T14:25:40;8.43;;;5.00;;
65998;SDS011;52766;56.008;37.440;2023-06-22T14:28:11;7.47;;;5.22;;
65998;SDS011;52766;56.008;37.440;2023-06-22T14:31:01;8.45;;;5.32;;
65998;SDS011;52766;56.008;37.440;2023-06-22T14:33:30;8.13;;;5.13;;
65998;SDS011;52766;56.008;37.440;2023-06-22T14:35:57;15.73;;;8.10;;
65998;SDS011;52766;56.008;37.440;2023-06-22T14:38:25;9.23;;;5.43;;
65998;SDS011;52766;56.008;37.440;2023-06-22T14:40:58;6.30;;;5.40;;
65998;SDS011;52766;56.008;37.440;2023-06-22T14:43:25;7.88;;;5.10;;
65998;SDS011;52766;56.008;37.440;2023-06-22T14:45:53;8.30;;;4.65;;
65998;SDS011;52766;56.008;37.440;2023-06-22T14:48:21;7.22;;;4.93;;
65998;SDS011;52766;56.008;37.440;2023-06-22T14:50:51;7.85;;;4.85;;
65998;SDS011;52766;56.008;37.440;2023-06-22T14:53:19;10.27;;;5.28;;
65998;SDS011;52766;56.008;37.440;2023-06-22T14:59:10;8.00;;;5.65;;
65998;SDS011;52766;56.008;37.440;2023-06-22T15:01:42;9.13;;;5.70;;
65998;SDS011;52766;56.008;37.440;2023-06-22T15:04:23;7.30;;;4.72;;
65998;SDS011;52766;56.008;37.440;2023-06-22T15:06:52;8.70;;;5.68;;
65998;SDS011;52766;56.008;37.440;2023-06-22T15:09:24;8.65;;;5.30;;
65998;SDS011;52766;56.008;37.440;2023-06-22T15:11:57;7.53;;;5.25;;
65998;SDS011;52766;56.008;37.440;2023-06-22T15:14:32;7.65;;;5.68;;
65998;SDS011;52766;56.008;37.440;2023-06-22T15:17:00;8.13;;;5.05;;
65998;SDS011;52766;56.008;37.440;2023-06-22T15:19:30;7.85;;;5.30;;
65998;SDS011;52766;56.008;37.440;2023-06-22T15:21:57;8.13;;;5.38;;
65998;SDS011;52766;56.008;37.440;2023-06-22T15:24:26;7.72;;;5.53;;
65998;SDS011;52766;56.008;37.440;2023-06-22T15:26:54;11.77;;;5.57;;
65998;SDS011;52766;56.008;37.440;2023-06-22T15:29:24;10.75;;;5.90;;